createdAt,value
2023-02-06T00:53:08.445Z,100.00
2023-02-06T00:55:38.174Z,100.00
2023-02-06T00:58:07.959Z,100.00
2023-02-06T01:00:38.053Z,100.00
2023-02-06T01:03:07.804Z,100.00
2023-02-06T01:05:38.836Z,100.00
2023-02-06T01:08:11.336Z,100.00
2023-02-06T01:10:43.433Z,100.00
2023-02-06T01:13:13.704Z,100.00
2023-02-06T01:15:44.242Z,100.00
2023-02-06T01:18:14.124Z,100.00
2023-02-06T01:20:43.956Z,100.00
2023-02-06T01:23:16.346Z,100.00
2023-02-06T01:25:47.181Z,100.00
2023-02-06T01:28:18.652Z,100.00
2023-02-06T01:30:49.771Z,100.00
2023-02-06T01:33:19.545Z,100.00
2023-02-06T01:35:57.271Z,100.00
2023-02-06T01:38:29.625Z,100.00
2023-02-06T01:41:00.021Z,100.00
2023-02-06T01:43:33.307Z,100.00
2023-02-06T01:46:04.280Z,100.00
2023-02-06T01:48:38.556Z,100.00
2023-02-06T01:51:11.743Z,100.00
2023-02-06T01:53:47.451Z,100.00
2023-02-06T01:56:20.353Z,100.00
2023-02-06T01:58:54.592Z,100.00
2023-02-06T02:01:24.896Z,100.00
2023-02-06T02:03:59.857Z,100.00
2023-02-06T02:06:30.323Z,100.00
2023-02-06T02:09:05.833Z,100.00
2023-02-06T02:11:37.721Z,100.00
2023-02-06T02:14:10.226Z,100.00
2023-02-06T02:16:51.061Z,100.00
2023-02-06T02:19:48.776Z,100.00
2023-02-06T02:22:42.875Z,100.00
2023-02-06T02:25:41.722Z,100.00
2023-02-06T02:28:41.420Z,100.00
2023-02-06T02:31:44.077Z,100.00
2023-02-06T02:34:42.284Z,100.00
2023-02-06T02:37:18.379Z,100.00
2023-02-06T02:39:55.495Z,100.00
2023-02-06T02:42:30.626Z,100.00
2023-02-06T02:45:08.817Z,100.00
2023-02-06T02:47:52.542Z,100.00
2023-02-06T02:50:27.741Z,100.00
2023-02-06T02:52:58.389Z,100.00
2023-02-06T02:55:28.241Z,100.00
2023-02-06T02:58:09.238Z,100.00
2023-02-06T03:00:45.333Z,100.00
2023-02-06T03:03:17.688Z,100.00
2023-02-06T03:06:05.561Z,100.00
2023-02-06T03:08:42.105Z,100.00
2023-02-06T03:11:16.261Z,100.00
2023-02-06T03:13:51.084Z,100.00
2023-02-06T03:16:26.515Z,100.00
2023-02-06T03:19:01.358Z,100.00
2023-02-06T03:21:37.695Z,100.00
2023-02-06T03:24:12.785Z,100.00
2023-02-06T03:26:43.967Z,100.00
2023-02-06T03:29:15.834Z,100.00
2023-02-06T03:31:51.033Z,100.00
2023-02-06T03:34:25.888Z,100.00
2023-02-06T03:36:58.343Z,100.00
2023-02-06T03:39:28.672Z,100.00
2023-02-06T03:42:01.387Z,100.00
2023-02-06T03:44:37.326Z,100.00
2023-02-06T03:47:10.527Z,100.00
2023-02-06T03:49:44.210Z,100.00
2023-02-06T03:52:20.982Z,100.00
2023-02-06T03:54:56.556Z,100.00
2023-02-06T03:57:27.829Z,100.00
2023-02-06T03:59:57.645Z,100.00
2023-02-06T04:02:28.690Z,100.00
2023-02-06T04:04:58.425Z,100.00
2023-02-06T04:07:32.653Z,100.00
2023-02-06T04:10:02.371Z,100.00
2023-02-06T04:12:32.178Z,100.00
2023-02-06T04:15:01.939Z,100.00
2023-02-06T04:17:49.623Z,100.00
2023-02-06T04:20:23.267Z,100.00
2023-02-06T04:22:55.633Z,100.00
2023-02-06T04:25:25.397Z,100.00
2023-02-06T04:27:55.273Z,100.00
2023-02-06T04:30:25.038Z,100.00
2023-02-06T04:32:55.094Z,100.00
2023-02-06T04:35:24.801Z,100.00
2023-02-06T04:37:57.090Z,100.00
2023-02-06T04:40:26.798Z,100.00
2023-02-06T04:42:56.560Z,100.00
2023-02-06T04:45:26.360Z,100.00
2023-02-06T04:47:57.921Z,100.00
2023-02-06T04:50:31.449Z,100.00
2023-02-06T04:53:03.784Z,100.00
2023-02-06T04:55:33.651Z,100.00
2023-02-06T04:58:03.477Z,100.00
2023-02-06T05:00:33.147Z,100.00
2023-02-06T05:03:02.869Z,100.00
2023-02-06T05:05:32.858Z,100.00
2023-02-06T05:08:05.297Z,100.00
2023-02-06T05:10:35.096Z,100.00
2023-02-06T05:13:04.991Z,100.00
2023-02-06T05:15:34.952Z,100.00
2023-02-06T05:18:05.184Z,100.00
2023-02-06T05:20:35.268Z,100.00
2023-02-06T05:23:07.647Z,100.00
2023-02-06T05:25:37.687Z,100.00
2023-02-06T05:28:07.991Z,100.00
2023-02-06T05:30:38.232Z,100.00
2023-02-06T05:33:07.962Z,100.00
2023-02-06T05:35:37.858Z,100.00
2023-02-06T05:38:10.697Z,100.00
2023-02-06T05:40:40.463Z,100.00
2023-02-06T05:43:10.317Z,100.00
2023-02-06T05:45:40.289Z,100.00
2023-02-06T05:48:10.290Z,100.00
2023-02-06T05:50:41.270Z,100.00
2023-02-06T05:53:20.574Z,100.00
2023-02-06T05:55:50.284Z,100.00
2023-02-06T05:58:21.092Z,100.00
2023-02-06T06:00:51.131Z,100.00
2023-02-06T06:03:21.140Z,100.00
2023-02-06T06:05:51.147Z,100.00
2023-02-06T06:08:23.521Z,100.00
2023-02-06T06:10:54.215Z,100.00
2023-02-06T06:13:23.945Z,100.00
2023-02-06T06:15:54.601Z,100.00
2023-02-06T06:18:24.798Z,100.00
2023-02-06T06:20:54.456Z,100.00
2023-02-06T06:23:26.766Z,100.00
2023-02-06T06:25:56.521Z,100.00
2023-02-06T06:28:26.259Z,100.00
2023-02-06T06:31:03.671Z,100.00
2023-02-06T06:33:33.449Z,100.00
2023-02-06T06:36:03.311Z,100.00
2023-02-06T06:38:35.644Z,100.00
2023-02-06T06:41:05.716Z,100.00
2023-02-06T06:43:35.789Z,100.00
2023-02-06T06:46:06.166Z,100.00
2023-02-06T06:48:38.258Z,100.00
2023-02-06T06:51:09.272Z,100.00
2023-02-06T06:53:41.662Z,100.00
2023-02-06T06:56:14.235Z,100.00
2023-02-06T06:58:44.659Z,100.00
2023-02-06T07:01:15.037Z,100.00
2023-02-06T07:03:47.170Z,100.00
2023-02-06T07:06:17.750Z,100.00
2023-02-06T07:08:50.054Z,100.00
2023-02-06T07:11:19.960Z,100.00
2023-02-06T07:13:49.925Z,100.00
2023-02-06T07:16:20.719Z,100.00
2023-02-06T07:18:50.922Z,100.00
2023-02-06T07:21:20.913Z,100.00
2023-02-06T07:23:53.531Z,100.00
2023-02-06T07:26:23.438Z,100.00
2023-02-06T07:28:53.230Z,100.00
2023-02-06T07:31:23.141Z,100.00
2023-02-06T07:33:52.942Z,100.00
2023-02-06T07:36:22.809Z,100.00
2023-02-06T07:38:55.228Z,100.00
2023-02-06T07:41:25.091Z,100.00
2023-02-06T07:43:55.248Z,100.00
2023-02-06T07:46:25.324Z,100.00
2023-02-06T07:48:55.120Z,100.00
2023-02-06T07:51:24.836Z,100.00
2023-02-06T07:53:57.188Z,100.00
2023-02-06T07:56:26.931Z,100.00
2023-02-06T07:58:58.199Z,100.00
2023-02-06T08:01:28.539Z,100.00
2023-02-06T08:03:58.974Z,100.00
2023-02-06T08:06:30.377Z,100.00
2023-02-06T08:09:06.422Z,100.00
2023-02-06T08:11:36.511Z,100.00
2023-02-06T08:14:06.481Z,100.00
2023-02-06T08:16:36.490Z,100.00
2023-02-06T08:19:06.930Z,100.00
2023-02-06T08:21:36.799Z,100.00
2023-02-06T08:24:09.772Z,100.00
2023-02-06T08:26:39.815Z,100.00
2023-02-06T08:29:10.734Z,100.00
2023-02-06T08:31:42.986Z,100.00
2023-02-06T08:34:15.642Z,100.00
2023-02-06T08:36:46.112Z,100.00
2023-02-06T08:39:19.295Z,100.00
2023-02-06T08:41:48.944Z,100.00
2023-02-06T08:44:20.432Z,100.00
2023-02-06T08:46:58.827Z,100.00
2023-02-06T08:49:34.453Z,100.00
2023-02-06T08:52:04.221Z,100.00
2023-02-06T08:54:38.716Z,100.00
2023-02-06T08:57:09.915Z,100.00
2023-02-06T08:59:39.644Z,100.00
2023-02-06T09:02:09.521Z,100.00
2023-02-06T09:04:40.115Z,100.00
2023-02-06T09:07:09.853Z,100.00
2023-02-06T09:09:42.383Z,100.00
2023-02-06T09:12:12.195Z,100.00
2023-02-06T09:14:42.209Z,100.00
2023-02-06T09:17:11.912Z,100.00
2023-02-06T09:19:41.814Z,100.00
2023-02-06T09:22:11.540Z,100.00
2023-02-06T09:24:44.148Z,100.00
2023-02-06T09:27:13.837Z,100.00
2023-02-06T09:29:43.848Z,100.00
2023-02-06T09:32:13.598Z,100.00
2023-02-06T09:34:43.260Z,100.00
2023-02-06T09:37:12.922Z,100.00
2023-02-06T09:39:45.223Z,100.00
2023-02-06T09:42:22.041Z,100.00
2023-02-06T09:44:56.467Z,100.00
2023-02-06T09:47:29.836Z,100.00
2023-02-06T09:50:02.813Z,100.00
2023-02-06T09:52:46.872Z,100.00
2023-02-06T09:55:28.096Z,100.00
2023-02-06T09:58:04.587Z,100.00
2023-02-06T10:00:45.626Z,100.00
2023-02-06T10:03:49.348Z,100.00
2023-02-06T10:06:24.222Z,100.00
2023-02-06T10:09:02.542Z,100.00
2023-02-06T10:11:48.963Z,100.00
2023-02-06T10:14:25.012Z,100.00
2023-02-06T10:17:01.064Z,100.00
2023-02-06T10:19:43.915Z,100.00
2023-02-06T10:22:21.009Z,100.00
2023-02-06T10:24:56.966Z,100.00
2023-02-06T10:27:29.699Z,100.00
2023-02-06T10:30:00.548Z,100.00
2023-02-06T10:32:41.429Z,100.00
2023-02-06T10:35:31.255Z,100.00
2023-02-06T10:38:25.842Z,100.00
2023-02-06T10:40:59.243Z,100.00
2023-02-06T10:43:41.617Z,100.00
2023-02-06T10:46:33.989Z,100.00
2023-02-06T10:49:09.295Z,100.00
2023-02-06T10:51:42.662Z,100.00
2023-02-06T10:54:18.318Z,100.00
2023-02-06T10:56:50.541Z,100.00
2023-02-06T10:59:28.332Z,100.00
2023-02-06T11:02:08.320Z,100.00
2023-02-06T11:04:43.028Z,100.00
2023-02-06T11:07:22.713Z,100.00
2023-02-06T11:09:52.378Z,100.00
2023-02-06T11:12:30.483Z,100.00
2023-02-06T11:15:06.247Z,100.00
2023-02-06T11:17:36.401Z,100.00
2023-02-06T11:20:20.388Z,100.00
2023-02-06T11:22:53.437Z,100.00
2023-02-06T11:25:31.441Z,100.00
2023-02-06T11:28:02.679Z,100.00
2023-02-06T11:30:39.372Z,100.00
2023-02-06T11:33:11.675Z,100.00
2023-02-06T11:35:50.466Z,100.00
2023-02-06T11:38:21.904Z,100.00
2023-02-06T11:41:00.905Z,100.00
2023-02-06T11:43:33.302Z,100.00
2023-02-06T11:46:17.970Z,100.00
2023-02-06T11:48:49.708Z,100.00
2023-02-06T11:51:19.541Z,100.00
2023-02-06T11:54:00.175Z,100.00
2023-02-06T11:56:30.796Z,100.00
2023-02-06T11:59:10.001Z,100.00
2023-02-06T12:01:48.347Z,100.00
2023-02-06T12:04:24.717Z,100.00
2023-02-06T12:07:01.133Z,100.00
2023-02-06T12:09:31.034Z,100.00
2023-02-06T12:12:04.517Z,100.00
2023-02-06T12:14:40.167Z,100.00
2023-02-06T12:17:25.049Z,100.00
2023-02-06T12:20:11.147Z,100.00
2023-02-06T12:22:45.577Z,100.00
2023-02-06T12:25:28.412Z,100.00
2023-02-06T12:28:05.533Z,100.00
2023-02-06T12:30:41.095Z,100.00
2023-02-06T12:33:17.930Z,100.00
2023-02-06T12:35:51.237Z,100.00
2023-02-06T12:38:29.423Z,100.00
2023-02-06T12:41:14.790Z,100.00
2023-02-06T12:43:48.321Z,100.00
2023-02-06T12:46:23.554Z,100.00
2023-02-06T12:49:03.787Z,100.00
2023-02-06T12:51:40.402Z,100.00
2023-02-06T12:54:20.421Z,100.00
2023-02-06T12:56:53.809Z,100.00
2023-02-06T12:59:58.047Z,100.00
2023-02-06T13:02:51.253Z,100.00
2023-02-06T13:05:28.549Z,100.00
2023-02-06T13:08:05.164Z,100.00
2023-02-06T13:10:35.054Z,100.00
2023-02-06T13:13:05.060Z,100.00
2023-02-06T13:15:39.368Z,100.00
2023-02-06T13:18:53.910Z,100.00
2023-02-06T13:21:29.874Z,100.00
2023-02-06T13:24:16.964Z,100.00
2023-02-06T13:27:19.200Z,100.00
2023-02-06T13:29:51.622Z,100.00
2023-02-06T13:32:51.306Z,100.00
2023-02-06T13:35:26.864Z,100.00
2023-02-06T13:38:28.662Z,100.00
2023-02-06T13:41:37.288Z,100.00
2023-02-06T13:44:15.629Z,100.00
2023-02-06T13:47:14.594Z,100.00
2023-02-06T13:50:20.340Z,100.00
2023-02-06T13:52:59.658Z,100.00
2023-02-06T13:55:40.942Z,100.00
2023-02-06T13:58:47.745Z,100.00
2023-02-06T14:01:23.201Z,100.00
2023-02-06T14:03:55.727Z,100.00
2023-02-06T14:06:49.005Z,100.00
2023-02-06T14:09:32.292Z,100.00
2023-02-06T14:12:26.945Z,100.00
2023-02-06T14:15:14.513Z,100.00
2023-02-06T14:18:01.068Z,100.00
2023-02-06T14:20:44.018Z,100.00
2023-02-06T14:23:25.474Z,100.00
2023-02-06T14:26:10.471Z,100.00
2023-02-06T14:28:52.535Z,100.00
2023-02-06T14:31:38.580Z,100.00
2023-02-06T14:34:43.876Z,100.00
2023-02-06T14:37:36.842Z,98.01
2023-02-06T14:40:18.509Z,97.59
2023-02-06T14:42:49.661Z,98.76
2023-02-06T14:45:33.838Z,96.46
2023-02-06T14:48:11.840Z,93.93
2023-02-06T14:50:43.107Z,94.21
2023-02-06T14:53:20.854Z,93.88
2023-02-06T14:55:50.505Z,95.38
2023-02-06T14:58:23.376Z,95.85
2023-02-06T15:00:56.580Z,96.53
2023-02-06T15:03:28.979Z,97.22
2023-02-06T15:06:03.993Z,97.59
2023-02-06T15:08:37.264Z,97.76
2023-02-06T15:11:10.779Z,96.51
2023-02-06T15:13:41.090Z,97.21
2023-02-06T15:16:13.508Z,97.37
2023-02-06T15:18:43.307Z,97.40
2023-02-06T15:21:17.663Z,97.62
2023-02-06T15:24:00.980Z,96.98
2023-02-06T15:26:38.148Z,97.18
2023-02-06T15:29:15.012Z,96.77
2023-02-06T15:31:50.059Z,96.12
2023-02-06T15:34:21.554Z,95.66
2023-02-06T15:36:51.308Z,94.92
2023-02-06T15:39:21.875Z,94.41
2023-02-06T15:41:54.064Z,95.08
2023-02-06T15:44:30.208Z,93.94
2023-02-06T15:47:05.462Z,94.71
2023-02-06T15:49:40.242Z,95.26
2023-02-06T15:52:11.009Z,95.54
2023-02-06T15:54:45.059Z,94.86
2023-02-06T15:57:27.581Z,94.59
2023-02-06T15:59:59.466Z,94.53
2023-02-06T16:02:35.807Z,93.75
2023-02-06T16:05:07.131Z,93.74
2023-02-06T16:07:39.119Z,93.84
2023-02-06T16:10:25.344Z,93.49
2023-02-06T16:12:55.950Z,94.31
2023-02-06T16:15:30.502Z,93.84
2023-02-06T16:18:04.609Z,93.93
2023-02-06T16:20:40.175Z,93.24
2023-02-06T16:23:26.300Z,92.59
2023-02-06T16:26:08.666Z,93.33
2023-02-06T16:28:44.846Z,93.72
2023-02-06T16:31:17.243Z,94.06
2023-02-06T16:33:51.984Z,93.54
2023-02-06T16:36:24.270Z,93.47
2023-02-06T16:39:03.607Z,93.34
2023-02-06T16:41:37.284Z,93.85
2023-02-06T16:44:10.384Z,93.20
2023-02-06T16:46:40.356Z,93.57
2023-02-06T16:49:17.696Z,92.94
2023-02-06T16:51:49.388Z,93.29
2023-02-06T16:54:23.555Z,93.28
2023-02-06T16:56:54.484Z,93.50
2023-02-06T16:59:24.711Z,93.60
2023-02-06T17:01:55.794Z,93.23
2023-02-06T17:04:28.589Z,93.25
2023-02-06T17:06:58.725Z,93.65
2023-02-06T17:09:28.830Z,93.26
2023-02-06T17:11:58.910Z,93.53
2023-02-06T17:14:31.892Z,93.76
2023-02-06T17:17:03.179Z,94.28
2023-02-06T17:19:35.592Z,94.00
2023-02-06T17:22:05.421Z,94.27
2023-02-06T17:24:35.197Z,93.97
2023-02-06T17:27:05.187Z,93.75
2023-02-06T17:29:35.328Z,93.31
2023-02-06T17:32:06.376Z,93.22
2023-02-06T17:34:39.816Z,93.26
2023-02-06T17:37:09.629Z,93.27
2023-02-06T17:39:39.316Z,93.74
2023-02-06T17:42:09.030Z,94.11
2023-02-06T17:44:38.698Z,93.58
2023-02-06T17:47:08.330Z,92.57
2023-02-06T17:49:40.643Z,93.64
2023-02-06T17:52:10.315Z,93.99
2023-02-06T17:54:40.007Z,93.97
2023-02-06T17:57:24.714Z,94.15
2023-02-06T18:00:01.633Z,94.17
2023-02-06T18:02:31.462Z,94.31
2023-02-06T18:05:04.185Z,93.10
2023-02-06T18:07:33.909Z,93.49
2023-02-06T18:10:03.583Z,94.14
2023-02-06T18:12:33.327Z,93.13
2023-02-06T18:15:03.235Z,93.82
2023-02-06T18:17:33.507Z,94.16
2023-02-06T18:20:07.151Z,94.13
2023-02-06T18:22:41.267Z,94.20
2023-02-06T18:25:12.918Z,93.90
2023-02-06T18:27:45.641Z,93.54
2023-02-06T18:30:17.317Z,93.73
2023-02-06T18:32:47.030Z,93.54
2023-02-06T18:35:20.057Z,93.59
2023-02-06T18:37:50.158Z,94.26
2023-02-06T18:40:20.084Z,94.16
2023-02-06T18:42:54.016Z,94.21
2023-02-06T18:45:25.019Z,94.37
2023-02-06T18:47:55.624Z,94.00
2023-02-06T18:50:27.899Z,93.73
2023-02-06T18:52:57.737Z,94.22
2023-02-06T18:55:27.790Z,94.03
2023-02-06T18:57:57.858Z,93.81
2023-02-06T19:00:27.805Z,93.75
2023-02-06T19:02:57.454Z,93.19
2023-02-06T19:05:30.811Z,93.13
2023-02-06T19:08:00.448Z,93.17
2023-02-06T19:10:30.168Z,93.65
2023-02-06T19:12:59.850Z,93.90
2023-02-06T19:15:30.302Z,94.02
2023-02-06T19:18:00.545Z,93.80
2023-02-06T19:20:32.746Z,92.72
2023-02-06T19:23:02.368Z,93.17
2023-02-06T19:25:32.105Z,93.33
2023-02-06T19:28:01.734Z,92.90
2023-02-06T19:30:32.302Z,92.36
2023-02-06T19:33:01.960Z,91.78
2023-02-06T19:35:34.234Z,91.69
2023-02-06T19:38:03.862Z,91.47
2023-02-06T19:40:33.492Z,91.36
2023-02-06T19:43:03.176Z,91.57
2023-02-06T19:45:32.817Z,92.67
2023-02-06T19:48:02.434Z,92.30
2023-02-06T19:50:36.626Z,92.07
2023-02-06T19:53:06.446Z,91.17
2023-02-06T19:55:36.427Z,90.77
2023-02-06T19:58:06.321Z,91.13
2023-02-06T20:00:36.181Z,91.43
2023-02-06T20:03:06.267Z,90.94
2023-02-06T20:05:38.552Z,90.66
2023-02-06T20:08:08.220Z,90.67
2023-02-06T20:10:39.663Z,90.63
2023-02-06T20:13:09.380Z,90.79
2023-02-06T20:15:40.715Z,90.86
2023-02-06T20:18:10.325Z,90.85
2023-02-06T20:20:42.822Z,90.37
2023-02-06T20:23:12.467Z,90.80
2023-02-06T20:25:42.242Z,91.09
2023-02-06T20:28:11.881Z,91.13
2023-02-06T20:30:41.998Z,91.12
2023-02-06T20:33:12.221Z,91.00
2023-02-06T20:35:45.789Z,90.69
2023-02-06T20:38:15.546Z,91.86
2023-02-06T20:40:54.045Z,93.16
2023-02-06T20:43:23.671Z,96.19
2023-02-06T20:45:53.352Z,93.41
2023-02-06T20:48:23.023Z,93.74
2023-02-06T20:50:59.238Z,93.04
2023-02-06T20:53:29.549Z,91.97
2023-02-06T20:55:59.367Z,93.91
2023-02-06T20:58:29.493Z,94.99
2023-02-06T21:00:59.371Z,95.82
2023-02-06T21:03:29.155Z,95.67
2023-02-06T21:06:02.146Z,95.51
2023-02-06T21:08:31.765Z,94.21
2023-02-06T21:11:01.412Z,93.59
2023-02-06T21:13:31.107Z,94.06
2023-02-06T21:16:01.539Z,93.78
2023-02-06T21:18:33.391Z,92.98
2023-02-06T21:21:12.139Z,93.26
2023-02-06T21:23:43.424Z,93.63
2023-02-06T21:26:15.429Z,94.05
2023-02-06T21:28:45.067Z,93.07
2023-02-06T21:31:18.092Z,92.38
2023-02-06T21:33:48.944Z,92.63
2023-02-06T21:36:22.941Z,92.04
2023-02-06T21:38:52.652Z,92.05
2023-02-06T21:41:22.333Z,92.34
2023-02-06T21:43:52.376Z,92.18
2023-02-06T21:46:22.304Z,92.18
2023-02-06T21:48:55.223Z,92.60
2023-02-06T21:51:27.714Z,92.23
2023-02-06T21:53:57.488Z,92.32
2023-02-06T21:56:29.004Z,92.52
2023-02-06T21:58:59.736Z,92.62
2023-02-06T22:01:33.213Z,91.53
2023-02-06T22:04:03.969Z,90.20
2023-02-06T22:06:37.926Z,90.77
2023-02-06T22:09:09.280Z,91.87
2023-02-06T22:11:42.792Z,91.29
2023-02-06T22:14:15.224Z,93.56
2023-02-06T22:16:46.653Z,92.97
2023-02-06T22:19:17.688Z,91.88
2023-02-06T22:21:49.944Z,92.83
2023-02-06T22:24:19.664Z,93.15
2023-02-06T22:26:49.393Z,93.35
2023-02-06T22:29:20.694Z,93.57
2023-02-06T22:31:50.917Z,92.59
2023-02-06T22:34:22.585Z,91.52
2023-02-06T22:36:54.845Z,90.92
2023-02-06T22:39:24.654Z,91.01
2023-02-06T22:41:54.945Z,90.41
2023-02-06T22:44:24.656Z,90.72
2023-02-06T22:46:55.509Z,90.31
2023-02-06T22:49:25.337Z,89.57
2023-02-06T22:51:58.800Z,89.05
2023-02-06T22:54:28.441Z,89.14
2023-02-06T22:56:58.135Z,88.95
2023-02-06T22:59:29.129Z,88.96
2023-02-06T23:02:00.970Z,89.70
2023-02-06T23:04:34.700Z,89.94
2023-02-06T23:07:07.754Z,89.91
2023-02-06T23:09:39.902Z,90.80
2023-02-06T23:12:11.481Z,90.98
2023-02-06T23:14:41.170Z,91.37
2023-02-06T23:17:10.896Z,90.92
2023-02-06T23:19:41.416Z,90.46
2023-02-06T23:22:13.735Z,90.02
2023-02-06T23:24:44.336Z,89.82
2023-02-06T23:27:14.049Z,89.96
2023-02-06T23:29:43.784Z,89.96
2023-02-06T23:32:13.745Z,90.31
2023-02-06T23:34:43.484Z,90.00
2023-02-06T23:37:15.750Z,89.44
2023-02-06T23:39:45.417Z,89.54
2023-02-06T23:42:15.140Z,89.92
2023-02-06T23:44:45.082Z,89.48
2023-02-06T23:47:14.774Z,89.68
2023-02-06T23:49:44.440Z,89.79
2023-02-06T23:52:16.898Z,89.53
2023-02-06T23:54:46.560Z,90.63
2023-02-06T23:57:16.252Z,90.25
2023-02-06T23:59:45.933Z,90.27
